Latest Coastal Weather Observations for Redcliffe

IDQ60701

Issued at 9:42 pm EST Monday 14 October 2019 (issued every 10 minutes, with the page automatically refreshed every 10 minutes)

About coastal observations | Map of coastal stations | Coastal observations for QLD | Marine services | Other Formats
Station Details ID: 040958 Name: REDCLIFFE Lat: -27.22 Lon: 153.09 Height: 12.6 m
Data from the previous 72 hours. | See also: Recent months at Redcliffe
Date/Time
EST
Wind Sea
Height
m
Swell Vis
km
Cloud Weather Temp
°C
Press
hPa
Rain since
9am
mm
Dir  Spd
kts
Gust
kts
Height
m
Period
s
Dir
14/09:30pm NNE 17 21 - - - - - - - 20.8 1015.3 0.0
14/09:00pm NNE 18 21 - - - - - - - 20.9 1015.6 0.0
14/08:30pm NNE 17 19 - - - - - - - 21.0 1015.5 0.0
14/08:00pm NNE 17 19 - - - - - - - 21.1 1015.5 0.0
14/07:30pm NNE 15 18 - - - - - - - 21.0 1015.4 0.0
14/07:00pm NNE 15 18 - - - - - - - 21.1 1015.2 0.0
14/06:30pm NNE 16 18 - - - - - - - 21.1 1015.0 0.0
14/06:00pm NNE 17 19 - - - - - - - 21.2 1014.6 0.0
14/05:30pm NE 17 19 - - - - - - - 21.2 1014.4 0.0
14/05:00pm NE 17 18 - - - - - - - 21.7 1014.7 0.0
14/04:30pm NE 16 19 - - - - - - - 22.1 1014.5 0.0
14/04:00pm NE 16 18 - - - - - - - 22.5 1014.4 0.0
14/03:30pm NE 15 17 - - - - - - - 22.2 1014.5 0.0
14/03:00pm NE 15 17 - - - - - - - 22.5 1014.7 0.0
14/02:30pm NE 15 17 - - - - - - - 22.3 1014.9 0.0
14/02:00pm NE 14 16 - - - - - - - 22.7 1015.2 0.0
14/01:30pm NE 15 17 - - - - - - - 22.6 1015.6 0.0
14/01:00pm NE 14 16 - - - - - - - 22.5 1015.9 0.0
14/12:30pm ENE 12 14 - - - - - - - 22.3 1016.6 0.0
14/12:00pm ENE 10 13 - - - - - - - 22.3 1017.1 0.0
14/11:30am E 8 9 - - - - - - - 22.3 1017.8 0.0
14/11:00am ESE 8 9 - - - - - - - 21.8 1018.4 0.0
14/10:30am ESE 6 7 - - - - - - - 21.7 1018.9 0.0
14/10:00am ESE 6 7 - - - - - - - 21.3 1019.2 0.0
14/09:30am SE 6 7 - - - - - - - 21.9 1019.4 0.0
14/09:00am SSE 6 7 - - - - - - - 21.5 1019.6 0.0
14/08:30am SSE 5 6 - - - - - - - 20.6 1019.6 0.0
14/08:00am SSE 5 6 - - - - - - - 19.8 1019.3 0.0
14/07:30am SW 6 8 - - - - - - - 19.1 1019.7 0.0
14/07:00am WSW 6 7 - - - - - - - 17.8 1019.6 0.0
14/06:30am WSW 6 8 - - - - - - - 16.2 1019.3 0.0
14/06:00am W 6 8 - - - - - - - 15.0 1019.3 0.0
14/05:30am SW 7 9 - - - - - - - 14.7 1018.8 0.0
14/05:00am WSW 6 9 - - - - - - - 15.0 1018.7 0.0
14/04:30am WSW 5 7 - - - - - - - 14.9 1018.2 0.0
14/04:00am WSW 5 6 - - - - - - - 15.1 1018.1 0.0
14/03:30am SW 7 8 - - - - - - - 15.4 1018.2 0.0
14/03:00am SW 7 9 - - - - - - - 15.7 1018.2 0.0
14/02:30am WSW 6 7 - - - - - - - 15.3 1018.3 0.0
14/02:00am SW 6 8 - - - - - - - 15.2 1018.5 0.0
14/01:30am SW 6 8 - - - - - - - 15.8 1018.7 0.0
14/01:00am SW 7 10 - - - - - - - 16.0 1018.8 0.0
14/12:30am SSW 9 14 - - - - - - - 16.5 1019.2 0.0
14/12:00am SSW 8 12 - - - - - - - 17.0 1019.4 0.0
 
Date/Time
EST
Wind Sea
Height
m
Swell Vis
km
Cloud Weather Temp
°C
Press
hPa
Rain since
9am
mm
Dir  Spd
kts
Gust
kts
Height
m
Period
s
Dir
13/11:30pm SSW 10 13 - - - - - - - 16.7 1019.4 0.0
13/11:00pm SSW 11 18 - - - - - - - 17.8 1019.5 0.0
13/10:30pm SSE 17 19 - - - - - - - 19.0 1019.2 0.0
13/10:00pm SSE 18 20 - - - - - - - 19.1 1019.1 0.0
13/09:30pm SSE 18 20 - - - - - - - 19.1 1019.1 0.0
13/09:00pm SSE 18 20 - - - - - - - 19.1 1019.3 0.0
13/08:30pm SSE 18 21 - - - - - - - 19.2 1019.2 0.0
13/08:00pm SE 18 21 - - - - - - - 19.3 1019.0 0.0
13/07:30pm SE 18 21 - - - - - - - 19.4 1018.5 0.0
13/07:00pm SSE 20 23 - - - - - - - 19.4 1017.9 0.0
13/06:30pm SE 20 24 - - - - - - - 19.6 1017.5 0.0
13/06:00pm SE 20 23 - - - - - - - 19.8 1017.3 0.0
13/05:30pm SSE 19 21 - - - - - - - 20.2 1016.7 0.0
13/05:00pm SSE 18 20 - - - - - - - 20.6 1016.2 0.0
13/04:30pm SE 17 19 - - - - - - - 21.2 1015.9 0.0
13/04:00pm SE 17 19 - - - - - - - 21.3 1015.8 0.0
13/03:30pm SE 16 18 - - - - - - - 21.5 1015.7 0.0
13/03:00pm SE 14 16 - - - - - - - 21.5 1015.7 0.0
13/02:30pm SE 13 16 - - - - - - - 21.7 1015.8 0.0
13/02:00pm SE 13 15 - - - - - - - 21.5 1016.1 0.0
13/01:30pm ESE 13 15 - - - - - - - 21.7 1016.3 0.0
13/01:00pm E 12 14 - - - - - - - 21.6 1016.6 0.0
13/12:30pm E 11 13 - - - - - - - 21.3 1016.7 0.0
13/12:00pm E 11 13 - - - - - - - 21.1 1016.7 0.0
13/11:30am E 8 9 - - - - - - - 21.7 1017.0 0.0
13/11:00am E 7 9 - - - - - - - 21.6 1017.3 0.0
13/10:30am SSE 5 6 - - - - - - - 21.9 1017.4 0.0
13/10:00am SSE 7 8 - - - - - - - 21.1 1017.6 0.0
13/09:30am S 9 12 - - - - - - - 20.6 1017.6 0.0
13/09:00am SSW 8 12 - - - - - - - 19.9 1017.7 4.6
13/08:30am SW 9 13 - - - - - - - 19.2 1017.7 4.6
13/08:00am SSW 10 14 - - - - - - - 18.5 1017.7 4.6
13/07:30am SW 6 11 - - - - - - - 17.2 1017.5 4.6
13/07:00am WSW 7 12 - - - - - - - 16.3 1017.3 4.6
13/06:30am W 6 8 - - - - - - - 15.3 1017.0 4.6
13/06:00am W 5 7 - - - - - - - 13.9 1016.7 4.6
13/05:30am W 4 6 - - - - - - - 12.6 1016.4 4.6
13/05:00am WNW 5 6 - - - - - - - 12.4 1015.9 4.6
13/04:30am WNW 5 6 - - - - - - - 12.1 1015.6 4.6
13/04:00am W 5 6 - - - - - - - 12.7 1015.2 4.6
13/03:30am W 5 6 - - - - - - - 13.0 1014.9 4.6
13/03:00am W 6 7 - - - - - - - 13.1 1014.8 4.6
13/02:30am WSW 6 7 - - - - - - - 13.3 1014.5 4.6
13/02:00am WSW 6 8 - - - - - - - 13.8 1014.7 4.6
13/01:30am W 6 8 - - - - - - - 13.7 1014.6 4.6
13/01:00am SW 7 10 - - - - - - - 14.0 1014.6 4.6
13/12:30am SW 9 12 - - - - - - - 14.7 1014.8 4.6
13/12:00am SW 9 11 - - - - - - - 15.4 1014.7 4.6
 
Date/Time
EST
Wind Sea
Height
m
Swell Vis
km
Cloud Weather Temp
°C
Press
hPa
Rain since
9am
mm
Dir  Spd
kts
Gust
kts
Height
m
Period
s
Dir
12/11:30pm SW 7 9 - - - - - - - 15.1 1014.6 4.6
12/11:00pm SSW 10 15 - - - - - - - 14.1 1014.7 4.6
12/10:30pm WSW 5 7 - - - - - - - 13.8 1014.9 4.6
12/10:00pm WSW 6 7 - - - - - - - 14.8 1015.0 4.6
12/09:30pm SW 4 5 - - - - - - - 15.0 1014.9 4.6
12/09:00pm WSW 4 5 - - - - - - - 15.6 1014.8 4.6
12/08:30pm WSW 5 7 - - - - - - - 15.7 1014.5 4.6
12/08:00pm S 8 10 - - - - - - - 16.2 1014.1 4.6
12/07:30pm S 12 14 - - - - - - - 17.0 1013.6 4.6
12/07:00pm S 13 15 - - - - - - - 17.4 1013.3 4.6
12/06:30pm SSE 13 15 - - - - - - - 17.7 1012.7 4.6
12/06:00pm SSE 12 15 - - - - - - - 17.9 1012.2 4.6
12/05:30pm SSE 12 16 - - - - - - - 18.5 1011.8 4.6
12/05:00pm SSE 14 17 - - - - - - - 18.9 1011.5 4.6
12/04:30pm SSE 11 14 - - - - - - - 19.7 1011.3 4.6
12/04:00pm SSE 13 16 - - - - - - - 19.8 1010.9 4.6
12/03:30pm S 11 13 - - - - - - - 19.9 1010.9 4.6
12/03:00pm S 11 15 - - - - - - - 19.6 1010.9 4.6
12/02:30pm S 12 14 - - - - - - - 20.0 1011.0 4.6
12/02:00pm S 11 14 - - - - - - - 19.6 1011.3 4.6
12/01:30pm S 10 14 - - - - - - - 19.7 1011.7 4.6
12/01:00pm SW 9 13 - - - - - - - 19.0 1012.1 4.6
12/12:30pm SSW 11 16 - - - - - - - 18.1 1012.4 4.6
12/12:00pm SSW 11 17 - - - - - - Recent precip. 15.4 1012.8 4.6
12/11:30am SSW 12 21 - - - - - - - 12.7 1013.6 4.6
12/11:25am SW 9 15 - - - - - - - 12.5 1013.2 4.4
12/11:00am WSW 8 10 - - - - - - - 12.9 1015.2 2.2
12/10:30am SW 13 19 - - - - - - - 13.6 1014.8 0.4
12/10:00am SW 15 21 - - - - - - - 14.4 1014.9 0.2
12/09:30am SW 14 21 - - - - - - - 14.2 1015.1 0.2
12/09:00am WSW 13 18 - - - - - - Recent precip. 12.8 1015.1 9.6
12/08:30am SSW 12 17 - - - - - - - 13.8 1015.0 8.4
12/08:00am SW 11 15 - - - - - - - 15.4 1014.4 7.8
12/07:30am W 7 9 - - - - - - - 15.6 1013.9 7.8
12/07:00am W 6 8 - - - - - - - 15.6 1013.3 7.8
12/06:30am N 8 10 - - - - - - - 15.9 1013.6 7.8
12/06:00am NE 9 12 - - - - - - Rain 16.0 1013.4 7.6
12/05:30am N 6 10 - - - - - - - 16.2 1012.9 6.4
12/05:12am ENE 21 29 - - - - - - - 15.8 1013.1 5.8
12/05:00am E 21 30 - - - - - - - 16.3 1011.6 5.8
12/04:55am E 15 26 - - - - - - - 16.2 1011.4 5.6
12/04:30am SE 7 9 - - - - - - - 15.2 1013.5 5.0
12/04:00am S 10 14 - - - - - - - 15.2 1013.4 4.8
12/03:30am SW 10 17 - - - - - - - 15.2 1013.3 4.8
12/03:00am SSE 11 16 - - - - - - - 15.7 1013.3 4.8
12/02:30am SSE 15 18 - - - - - - - 16.0 1013.0 4.8
12/02:00am S 14 17 - - - - - - - 15.5 1013.4 4.8
12/01:30am S 15 16 - - - - - - - 15.4 1013.9 4.8
12/01:00am S 13 18 - - - - - - - 15.7 1014.5 4.4
12/12:30am SW 7 13 - - - - - - - 15.7 1014.4 4.0
12/12:00am SE 3 6 - - - - - - Rain 16.3 1014.2 4.0
 
Date/Time
EST
Wind Sea
Height
m
Swell Vis
km
Cloud Weather Temp
°C
Press
hPa
Rain since
9am
mm
Dir  Spd
kts
Gust
kts
Height
m
Period
s
Dir
11/11:30pm W 6 9 - - - - - - - 16.3 1015.1 3.8
11/11:00pm WNW 7 9 - - - - - - - 16.3 1015.2 3.6
11/10:30pm N 9 14 - - - - - - - 16.5 1015.4 3.6
11/10:00pm ENE 9 12 - - - - - - - 16.8 1015.4 3.6

Other formats

Comma delimited format used in spreadsheet applications
http://www.bom.gov.au/fwo/IDQ60701/IDQ60701.95591.axf

JavaScript Object Notation format (JSON) in row-major order
http://www.bom.gov.au/fwo/IDQ60701/IDQ60701.95591.json

Data quality

Most of these data are generated automatically and are frequently updated. Quality checks on data are not normally performed. It is possible for incorrect values to appear. Refer to information at About Latest Weather Observations and please check the disclaimer before using these data.